createdAt,value
2017-12-16T00:06:43.998Z,1.7
2017-12-16T00:16:58.255Z,1.8
2017-12-16T00:27:12.460Z,1.8
2017-12-16T00:37:26.193Z,1.9
2017-12-16T00:47:39.497Z,1.9
2017-12-16T00:57:53.053Z,1.9
2017-12-16T01:08:05.221Z,1.8
2017-12-16T01:18:16.696Z,1.7
2017-12-16T01:28:30.851Z,1.7
2017-12-16T01:38:44.970Z,1.6
2017-12-16T01:48:59.316Z,1.6
2017-12-16T01:59:13.475Z,1.6
2017-12-16T02:09:27.379Z,1.6
2017-12-16T02:19:40.649Z,1.6
2017-12-16T02:29:54.962Z,1.6
2017-12-16T02:40:08.991Z,1.6
2017-12-16T02:50:22.335Z,1.7
2017-12-16T03:00:35.570Z,1.8
2017-12-16T03:10:48.694Z,1.8
2017-12-16T03:21:00.328Z,1.9
2017-12-16T03:31:14.612Z,2.0
2017-12-16T03:41:28.845Z,2.0
2017-12-16T03:51:40.870Z,2.1
2017-12-16T04:01:54.940Z,2.1
2017-12-16T04:12:08.550Z,2.1
2017-12-16T04:22:22.828Z,2.1
2017-12-16T04:32:36.520Z,2.1
2017-12-16T04:42:50.185Z,2.1
2017-12-16T04:53:04.580Z,2.1
2017-12-16T05:03:18.499Z,2.2
2017-12-16T05:13:32.840Z,2.2
2017-12-16T05:23:46.795Z,2.1
2017-12-16T05:34:01.298Z,2.1
2017-12-16T05:44:15.549Z,2.0
2017-12-16T05:54:29.945Z,1.9
2017-12-16T06:04:43.888Z,1.8
2017-12-16T06:14:58.283Z,1.7
2017-12-16T06:25:12.310Z,1.5
2017-12-16T06:35:25.970Z,1.5
2017-12-16T06:45:38.077Z,1.4
2017-12-16T06:55:51.974Z,1.3
2017-12-16T07:06:36.738Z,1.1
2017-12-16T07:16:50.367Z,1.1
2017-12-16T07:27:05.075Z,1.1
2017-12-16T07:37:18.761Z,1.0
2017-12-16T07:47:32.491Z,1.1
2017-12-16T07:57:45.892Z,1.1
2017-12-16T08:07:57.070Z,1.1
2017-12-16T08:18:41.601Z,1.1
2017-12-16T08:28:55.157Z,1.1
2017-12-16T08:39:09.603Z,1.1
2017-12-16T08:49:23.767Z,1.1
2017-12-16T08:59:37.941Z,1.2
2017-12-16T09:09:52.155Z,1.3
2017-12-16T09:20:06.539Z,1.4
2017-12-16T09:30:20.718Z,1.5
2017-12-16T09:40:34.980Z,1.6
2017-12-16T09:50:49.446Z,1.7
2017-12-16T10:01:03.807Z,1.9
2017-12-16T10:11:17.784Z,2.2
2017-12-16T10:21:31.697Z,2.5
2017-12-16T10:31:46.167Z,2.7
2017-12-16T10:42:00.144Z,2.7
2017-12-16T10:52:14.428Z,2.8
2017-12-16T11:02:28.749Z,2.8
2017-12-16T11:12:43.546Z,2.9
2017-12-16T11:22:57.361Z,3.1
2017-12-16T11:33:11.413Z,3.4
2017-12-16T11:43:25.870Z,3.7
2017-12-16T11:53:39.472Z,4.0
2017-12-16T12:03:53.163Z,4.2
2017-12-16T12:14:07.539Z,4.4
2017-12-16T12:24:21.440Z,4.6
2017-12-16T12:35:23.966Z,5.3
2017-12-16T12:46:09.160Z,5.5
2017-12-16T12:56:54.769Z,5.8
2017-12-16T13:07:40.291Z,6.0
2017-12-16T13:18:31.990Z,6.2
2017-12-16T13:28:54.821Z,6.2
2017-12-16T13:39:12.982Z,6.2
2017-12-16T13:50:02.431Z,6.0
2017-12-16T14:00:18.851Z,6.0
2017-12-16T14:10:34.784Z,5.9
2017-12-16T14:20:50.418Z,5.7
2017-12-16T14:31:45.929Z,5.4
2017-12-16T14:42:06.451Z,5.4
2017-12-16T14:52:26.271Z,5.3
2017-12-16T15:02:40.234Z,5.1
2017-12-16T15:13:30.429Z,4.8
2017-12-16T15:23:43.842Z,4.8
2017-12-16T15:34:28.662Z,4.5
2017-12-16T15:44:42.095Z,4.5
2017-12-16T15:54:56.009Z,4.4
2017-12-16T16:06:49.188Z,4.1
2017-12-16T16:17:03.613Z,4.1
2017-12-16T16:27:17.570Z,4.0
2017-12-16T16:38:02.267Z,3.8
2017-12-16T16:48:15.458Z,3.8
2017-12-16T16:58:29.082Z,3.7
2017-12-16T17:08:43.199Z,3.5
2017-12-16T17:18:57.695Z,3.4
2017-12-16T17:29:12.091Z,3.4
2017-12-16T17:39:56.938Z,3.2
2017-12-16T17:50:10.749Z,3.2
2017-12-16T18:00:24.863Z,3.1
2017-12-16T18:10:39.177Z,3.0
2017-12-16T18:20:50.451Z,2.9
2017-12-16T18:31:01.235Z,2.8
2017-12-16T18:41:14.528Z,2.7
2017-12-16T18:52:12.072Z,2.7
2017-12-16T19:03:18.907Z,2.7
2017-12-16T19:14:25.794Z,2.6
2017-12-16T19:24:48.736Z,2.6
2017-12-16T19:36:07.185Z,2.6
2017-12-16T19:47:18.759Z,2.5
2017-12-16T19:57:51.038Z,2.5
2017-12-16T20:08:18.935Z,2.4
2017-12-16T20:19:07.776Z,2.2
2017-12-16T20:29:58.381Z,2.1
2017-12-16T20:40:49.319Z,2.0
2017-12-16T20:51:42.207Z,2.0
2017-12-16T21:02:03.955Z,2.0
2017-12-16T21:12:52.139Z,1.9
2017-12-16T21:23:05.709Z,1.9
2017-12-16T21:33:20.278Z,1.8
2017-12-16T21:43:33.977Z,1.8
2017-12-16T21:53:47.346Z,1.8
2017-12-16T22:04:01.687Z,1.7
2017-12-16T22:14:15.849Z,1.6
2017-12-16T22:24:26.885Z,1.6
2017-12-16T22:34:40.240Z,1.5
2017-12-16T22:44:54.390Z,1.5
2017-12-16T22:55:07.809Z,1.5
2017-12-16T23:05:21.891Z,1.5
2017-12-16T23:16:06.635Z,1.6
2017-12-16T23:26:52.089Z,1.6
2017-12-16T23:37:05.988Z,1.6
2017-12-16T23:47:19.868Z,1.6
2017-12-16T23:57:34.478Z,1.6
